createdAt,value
2018-11-23T00:02:34.477Z,32.73
2018-11-23T00:05:38.674Z,32.07
2018-11-23T00:08:41.650Z,35.00
2018-11-23T00:11:45.790Z,35.50
2018-11-23T00:14:48.850Z,32.90
2018-11-23T00:17:52.706Z,33.60
2018-11-23T00:20:56.373Z,35.03
2018-11-23T00:23:59.927Z,35.70
2018-11-23T00:27:02.980Z,37.53
2018-11-23T00:30:08.215Z,34.60
2018-11-23T00:33:11.222Z,36.57
2018-11-23T00:36:14.289Z,36.60
2018-11-23T00:39:17.775Z,34.77
2018-11-23T00:42:21.370Z,35.87
2018-11-23T00:45:24.381Z,37.83
2018-11-23T00:48:28.542Z,38.87
2018-11-23T00:51:32.207Z,37.00
2018-11-23T00:54:36.098Z,36.47
2018-11-23T00:57:39.729Z,37.20
2018-11-23T01:00:44.150Z,35.33
2018-11-23T01:03:47.282Z,37.80
2018-11-23T01:06:50.822Z,35.63
2018-11-23T01:09:56.466Z,35.10
2018-11-23T01:13:00.583Z,35.87
2018-11-23T01:16:04.878Z,36.20
2018-11-23T01:19:08.839Z,36.30
2018-11-23T01:22:12.832Z,35.30
2018-11-23T01:25:17.102Z,36.33
2018-11-23T01:28:21.374Z,35.63
2018-11-23T01:31:25.038Z,33.87
2018-11-23T01:34:29.754Z,36.47
2018-11-23T01:37:34.008Z,36.47
2018-11-23T01:40:38.792Z,34.80
2018-11-23T01:43:42.022Z,35.87
2018-11-23T01:46:45.083Z,33.93
2018-11-23T01:49:48.814Z,36.33
2018-11-23T01:52:57.192Z,36.33
2018-11-23T01:56:01.154Z,35.33
2018-11-23T01:59:04.990Z,35.40
2018-11-23T02:02:08.856Z,35.97
2018-11-23T02:05:11.920Z,34.60
2018-11-23T02:08:14.953Z,35.83
2018-11-23T02:11:18.065Z,35.80
2018-11-23T02:14:21.433Z,35.77
2018-11-23T02:17:24.463Z,37.73
2018-11-23T02:20:27.515Z,36.80
2018-11-23T02:23:30.541Z,35.47
2018-11-23T02:26:33.673Z,36.17
2018-11-23T02:29:36.693Z,35.67
2018-11-23T02:32:40.073Z,37.43
2018-11-23T02:35:43.285Z,36.57
2018-11-23T02:38:46.389Z,35.77
2018-11-23T02:41:49.448Z,35.73
2018-11-23T02:44:52.494Z,36.17
2018-11-23T02:47:55.793Z,36.50
2018-11-23T02:50:58.859Z,36.23
2018-11-23T02:54:02.068Z,34.87
2018-11-23T02:57:05.552Z,37.47
2018-11-23T03:00:13.953Z,35.63
2018-11-23T03:03:16.964Z,34.37
2018-11-23T03:06:20.089Z,35.20
2018-11-23T03:09:23.143Z,33.93
2018-11-23T03:12:26.133Z,37.13
2018-11-23T03:15:29.164Z,36.27
2018-11-23T03:18:32.217Z,37.87
2018-11-23T03:21:35.392Z,37.17
2018-11-23T03:24:38.399Z,36.03
2018-11-23T03:27:41.425Z,35.47
2018-11-23T03:30:44.488Z,36.33
2018-11-23T03:33:47.608Z,37.27
2018-11-23T03:36:50.723Z,35.20
2018-11-23T03:39:53.751Z,36.83
2018-11-23T03:42:56.847Z,36.33
2018-11-23T03:45:59.835Z,35.73
2018-11-23T03:49:03.065Z,36.00
2018-11-23T03:52:06.228Z,37.33
2018-11-23T03:55:09.248Z,36.67
2018-11-23T03:58:12.314Z,37.33
2018-11-23T04:01:15.304Z,37.00
2018-11-23T04:04:18.267Z,36.10
2018-11-23T04:07:21.419Z,36.17
2018-11-23T04:10:24.472Z,36.93
2018-11-23T04:13:27.466Z,37.40
2018-11-23T04:16:30.484Z,38.00
2018-11-23T04:19:33.551Z,37.30
2018-11-23T04:22:37.492Z,37.90
2018-11-23T04:25:40.651Z,37.17
2018-11-23T04:28:43.640Z,37.80
2018-11-23T04:31:46.638Z,39.70
2018-11-23T04:34:49.728Z,39.83
2018-11-23T04:37:52.787Z,38.63
2018-11-23T04:40:55.807Z,41.20
2018-11-23T04:43:58.833Z,40.43
2018-11-23T04:47:01.892Z,38.77
2018-11-23T04:50:05.498Z,40.47
2018-11-23T04:53:08.564Z,39.87
2018-11-23T04:56:18.335Z,39.13
2018-11-23T04:59:21.428Z,39.67
2018-11-23T05:02:24.420Z,41.00
2018-11-23T05:05:27.544Z,40.83
2018-11-23T05:08:30.585Z,41.33
2018-11-23T05:11:33.628Z,40.13
2018-11-23T05:14:36.892Z,42.63
2018-11-23T05:17:40.196Z,43.17
2018-11-23T05:20:43.283Z,42.47
2018-11-23T05:23:46.280Z,42.87
2018-11-23T05:26:49.269Z,41.50
2018-11-23T05:29:52.257Z,40.33
2018-11-23T05:32:55.280Z,40.10
2018-11-23T05:35:58.331Z,40.60
2018-11-23T05:39:01.371Z,40.67
2018-11-23T05:42:04.420Z,43.10
2018-11-23T05:45:10.955Z,40.77
2018-11-23T05:48:13.986Z,41.57
2018-11-23T05:51:16.972Z,40.67
2018-11-23T05:54:19.964Z,39.80
2018-11-23T05:57:22.952Z,37.07
2018-11-23T06:00:27.523Z,44.17
2018-11-23T06:03:30.573Z,42.23
2018-11-23T06:06:33.566Z,39.63
2018-11-23T06:09:36.552Z,41.80
2018-11-23T06:12:39.520Z,39.77
2018-11-23T06:15:44.713Z,42.30
2018-11-23T06:18:45.634Z,40.27
2018-11-23T06:21:48.595Z,40.70
2018-11-23T06:24:51.647Z,40.30
2018-11-23T06:27:54.804Z,41.87
2018-11-23T06:30:57.795Z,40.40
2018-11-23T06:34:00.890Z,40.03
2018-11-23T06:37:03.975Z,40.30
2018-11-23T06:40:08.226Z,37.30
2018-11-23T06:43:11.287Z,40.33
2018-11-23T06:46:14.385Z,39.27
2018-11-23T06:49:17.368Z,40.07
2018-11-23T06:52:20.500Z,39.80
2018-11-23T06:55:23.676Z,35.70
2018-11-23T06:58:27.060Z,39.67
2018-11-23T07:01:30.051Z,37.70
2018-11-23T07:04:33.056Z,40.57
2018-11-23T07:07:36.335Z,39.17
2018-11-23T07:10:39.303Z,39.27
2018-11-23T07:13:42.335Z,39.90
2018-11-23T07:16:45.407Z,41.40
2018-11-23T07:19:48.408Z,38.77
2018-11-23T07:22:51.387Z,37.80
2018-11-23T07:25:54.693Z,35.90
2018-11-23T07:28:57.676Z,37.60
2018-11-23T07:32:00.672Z,38.93
2018-11-23T07:35:03.968Z,37.47
2018-11-23T07:38:07.045Z,36.90
2018-11-23T07:41:21.008Z,36.93
2018-11-23T07:44:24.022Z,38.40
2018-11-23T07:47:27.244Z,38.30
2018-11-23T07:50:30.287Z,41.03
2018-11-23T07:53:33.383Z,42.30
2018-11-23T07:56:36.467Z,38.63
2018-11-23T07:59:39.455Z,38.90
2018-11-23T08:02:42.860Z,37.20
2018-11-23T08:05:45.845Z,38.70
2018-11-23T08:08:48.835Z,40.97
2018-11-23T08:11:52.237Z,41.33
2018-11-23T08:14:55.368Z,35.47
2018-11-23T08:17:58.427Z,38.40
2018-11-23T08:21:01.516Z,38.17
2018-11-23T08:24:04.712Z,40.87
2018-11-23T08:27:07.700Z,39.33
2018-11-23T08:30:19.088Z,40.27
2018-11-23T08:33:22.080Z,37.90
2018-11-23T08:36:25.074Z,36.50
2018-11-23T08:39:28.060Z,39.03
2018-11-23T08:42:31.048Z,40.17
2018-11-23T08:45:34.040Z,38.03
2018-11-23T08:48:37.030Z,36.33
2018-11-23T08:51:40.121Z,37.53
2018-11-23T08:54:43.123Z,36.07
2018-11-23T08:57:46.208Z,37.83
2018-11-23T09:00:49.178Z,37.67
2018-11-23T09:03:52.223Z,39.17
2018-11-23T09:06:55.279Z,38.83
2018-11-23T09:09:58.268Z,37.10
2018-11-23T09:13:02.696Z,38.40
2018-11-23T09:16:06.499Z,41.63
2018-11-23T09:19:09.492Z,37.47
2018-11-23T09:22:12.483Z,37.07
2018-11-23T09:25:19.785Z,39.00
2018-11-23T09:28:22.764Z,39.33
2018-11-23T09:31:25.964Z,39.87
2018-11-23T09:34:29.096Z,39.37
2018-11-23T09:37:32.143Z,37.63
2018-11-23T09:40:35.182Z,37.37
2018-11-23T09:43:38.259Z,37.53
2018-11-23T09:46:41.466Z,38.57
2018-11-23T09:49:44.539Z,39.00
2018-11-23T09:52:48.792Z,39.47
2018-11-23T09:55:51.836Z,37.30
2018-11-23T09:58:54.875Z,36.73
2018-11-23T10:01:58.052Z,36.63
2018-11-23T10:05:01.108Z,39.50
2018-11-23T10:08:05.499Z,37.87
2018-11-23T10:11:08.524Z,39.70
2018-11-23T10:14:11.560Z,38.77
2018-11-23T10:17:14.596Z,36.60
2018-11-23T10:20:21.449Z,36.97
2018-11-23T10:23:25.267Z,37.53
2018-11-23T10:26:28.423Z,39.30
2018-11-23T10:29:31.419Z,38.47
2018-11-23T10:32:34.560Z,35.60
2018-11-23T10:35:37.609Z,36.50
2018-11-23T10:38:40.743Z,38.30
2018-11-23T10:41:44.308Z,38.10
2018-11-23T10:44:47.333Z,38.53
2018-11-23T10:47:51.212Z,39.83
2018-11-23T10:50:54.225Z,37.93
2018-11-23T10:53:57.634Z,36.03
2018-11-23T10:57:00.933Z,36.40
2018-11-23T11:00:04.528Z,37.10
2018-11-23T11:04:13.629Z,37.87
2018-11-23T11:07:16.628Z,37.47
2018-11-23T11:10:19.755Z,37.60
2018-11-23T11:13:22.812Z,39.30
2018-11-23T11:16:25.805Z,40.17
2018-11-23T11:19:29.003Z,38.07
2018-11-23T11:22:31.988Z,36.73
2018-11-23T11:25:34.984Z,38.97
2018-11-23T11:28:38.078Z,38.00
2018-11-23T11:31:41.267Z,35.77
2018-11-23T11:34:44.468Z,36.87
2018-11-23T11:37:47.350Z,39.20
2018-11-23T11:40:50.344Z,38.70
2018-11-23T11:43:53.335Z,38.57
2018-11-23T11:46:56.323Z,38.27
2018-11-23T11:49:59.416Z,38.90
2018-11-23T11:53:02.404Z,37.90
2018-11-23T11:56:05.783Z,37.23
2018-11-23T11:59:08.900Z,38.17
2018-11-23T12:02:11.995Z,38.17
2018-11-23T12:05:14.961Z,38.87
2018-11-23T12:08:17.974Z,39.00
2018-11-23T12:11:21.163Z,38.67
2018-11-23T12:14:24.364Z,37.07
2018-11-23T12:17:27.452Z,41.10
2018-11-23T12:20:30.445Z,37.40
2018-11-23T12:23:33.438Z,41.47
2018-11-23T12:26:36.460Z,36.37
2018-11-23T12:29:39.620Z,37.97
2018-11-23T12:32:43.564Z,37.23
2018-11-23T12:35:46.714Z,42.97
2018-11-23T12:38:49.856Z,44.60
2018-11-23T12:41:52.911Z,43.73
2018-11-23T12:44:55.935Z,39.80
2018-11-23T12:47:59.097Z,40.53
2018-11-23T12:51:03.039Z,40.77
2018-11-23T12:54:06.544Z,41.17
2018-11-23T12:57:09.712Z,43.03
2018-11-23T13:00:24.830Z,43.33
2018-11-23T13:03:27.979Z,42.70
2018-11-23T13:06:30.996Z,44.93
2018-11-23T13:09:34.363Z,43.93
2018-11-23T13:12:37.392Z,47.67
2018-11-23T13:15:40.479Z,44.17
2018-11-23T13:18:43.562Z,41.97
2018-11-23T13:21:46.674Z,41.47
2018-11-23T13:24:49.932Z,42.77
2018-11-23T13:27:53.056Z,42.30
2018-11-23T13:30:56.116Z,44.37
2018-11-23T13:33:59.240Z,42.43
2018-11-23T13:37:02.627Z,42.17
2018-11-23T13:40:07.879Z,43.43
2018-11-23T13:43:11.085Z,43.43
2018-11-23T13:46:14.148Z,42.53
2018-11-23T13:49:17.265Z,43.50
2018-11-23T13:52:20.365Z,44.50
2018-11-23T13:55:23.420Z,43.80
2018-11-23T13:58:26.543Z,44.77
2018-11-23T14:01:29.608Z,44.97
2018-11-23T14:04:32.728Z,46.67
2018-11-23T14:07:35.992Z,45.77
2018-11-23T14:10:39.022Z,45.53
2018-11-23T14:13:42.076Z,44.30
2018-11-23T14:16:45.101Z,47.53
2018-11-23T14:19:48.196Z,45.67
2018-11-23T14:22:51.354Z,47.97
2018-11-23T14:25:54.894Z,47.27
2018-11-23T14:28:57.435Z,46.37
2018-11-23T14:32:00.460Z,47.40
2018-11-23T14:35:03.519Z,48.93
2018-11-23T14:38:06.544Z,47.80
2018-11-23T14:41:09.743Z,46.97
2018-11-23T14:44:12.804Z,47.30
2018-11-23T14:47:15.824Z,48.30
2018-11-23T14:50:21.363Z,49.10
2018-11-23T14:53:24.462Z,49.60
2018-11-23T14:56:27.632Z,49.63
2018-11-23T14:59:30.724Z,48.13
2018-11-23T15:02:33.967Z,47.57
2018-11-23T15:05:37.624Z,52.10
2018-11-23T15:08:40.641Z,50.47
2018-11-23T15:11:43.709Z,50.87
2018-11-23T15:14:46.900Z,56.23
2018-11-23T15:17:50.689Z,54.90
2018-11-23T15:20:53.699Z,61.20
2018-11-23T15:23:57.324Z,57.97
2018-11-23T15:26:59.991Z,61.13
2018-11-23T15:30:03.247Z,53.70
2018-11-23T15:33:07.092Z,53.53
2018-11-23T15:36:10.193Z,50.77
2018-11-23T15:39:13.627Z,50.17
2018-11-23T15:42:16.683Z,51.73
2018-11-23T15:45:21.135Z,51.77
2018-11-23T15:48:24.196Z,51.43
2018-11-23T15:51:27.184Z,53.33
2018-11-23T15:54:30.203Z,52.27
2018-11-23T15:57:33.280Z,51.70
2018-11-23T16:00:37.672Z,51.33
2018-11-23T16:03:40.688Z,55.73
2018-11-23T16:06:43.703Z,53.47
2018-11-23T16:09:46.871Z,54.47
2018-11-23T16:12:51.044Z,54.67
2018-11-23T16:15:54.079Z,54.20
2018-11-23T16:18:57.077Z,57.60
2018-11-23T16:22:00.095Z,55.53
2018-11-23T16:25:03.560Z,54.60
2018-11-23T16:28:13.048Z,55.00
2018-11-23T16:31:16.080Z,55.77
2018-11-23T16:34:19.201Z,58.80
2018-11-23T16:37:22.259Z,58.27
2018-11-23T16:40:26.708Z,60.20
2018-11-23T16:43:29.772Z,55.37
2018-11-23T16:46:32.867Z,56.40
2018-11-23T16:49:35.958Z,55.97
2018-11-23T16:52:39.468Z,56.33
2018-11-23T16:55:42.492Z,56.93
2018-11-23T16:58:45.524Z,55.03
2018-11-23T17:01:48.548Z,55.03
2018-11-23T17:04:51.627Z,57.33
2018-11-23T17:07:54.625Z,55.67
2018-11-23T17:10:57.859Z,56.03
2018-11-23T17:14:00.911Z,54.63
2018-11-23T17:17:04.028Z,55.37
2018-11-23T17:20:09.068Z,58.07
2018-11-23T17:23:12.682Z,59.47
2018-11-23T17:26:15.735Z,73.13
2018-11-23T17:29:23.195Z,70.27
2018-11-23T17:32:21.816Z,66.03
2018-11-23T17:35:25.014Z,56.87
2018-11-23T17:38:28.095Z,55.73
2018-11-23T17:41:31.108Z,56.03
2018-11-23T17:44:34.224Z,52.73
2018-11-23T17:47:37.391Z,53.30
2018-11-23T17:50:40.531Z,56.33
2018-11-23T17:53:43.569Z,60.80
2018-11-23T17:56:46.663Z,58.43
2018-11-23T17:59:50.168Z,53.77
2018-11-23T18:02:53.700Z,58.43
2018-11-23T18:05:56.763Z,54.03
2018-11-23T18:08:59.755Z,54.80
2018-11-23T18:12:03.084Z,55.37
2018-11-23T18:15:09.403Z,59.40
2018-11-23T18:18:12.649Z,56.93
2018-11-23T18:21:15.704Z,53.43
2018-11-23T18:24:18.740Z,52.23
2018-11-23T18:27:21.787Z,55.70
2018-11-23T18:30:24.820Z,53.20
2018-11-23T18:33:27.868Z,53.43
2018-11-23T18:36:30.891Z,52.93
2018-11-23T18:39:33.952Z,51.50
2018-11-23T18:42:37.184Z,51.50
2018-11-23T18:45:40.251Z,51.50
2018-11-23T18:48:43.331Z,49.07
2018-11-23T18:51:46.355Z,51.60
2018-11-23T18:54:49.417Z,52.47
2018-11-23T18:57:52.456Z,51.97
2018-11-23T19:00:55.503Z,63.00
2018-11-23T19:03:58.496Z,65.30
2018-11-23T19:07:01.580Z,56.43
2018-11-23T19:10:05.548Z,50.07
2018-11-23T19:13:08.854Z,54.17
2018-11-23T19:16:11.884Z,52.30
2018-11-23T19:19:15.033Z,51.60
2018-11-23T19:22:18.076Z,52.60
2018-11-23T19:25:21.059Z,51.57
2018-11-23T19:28:24.051Z,50.03
2018-11-23T19:31:27.039Z,50.60
2018-11-23T19:34:30.161Z,50.53
2018-11-23T19:37:33.256Z,51.83
2018-11-23T19:40:36.419Z,47.57
2018-11-23T19:43:39.412Z,52.97
2018-11-23T19:46:42.399Z,51.37
2018-11-23T19:49:45.396Z,53.93
2018-11-23T19:52:48.383Z,54.77
2018-11-23T19:55:51.479Z,50.77
2018-11-23T19:58:54.466Z,51.20
2018-11-23T20:01:57.456Z,53.03
2018-11-23T20:05:00.495Z,52.53
2018-11-23T20:08:03.572Z,50.53
2018-11-23T20:11:06.631Z,48.83
2018-11-23T20:14:09.620Z,48.57
2018-11-23T20:17:12.720Z,46.17
2018-11-23T20:20:16.320Z,46.80
2018-11-23T20:23:19.311Z,46.33
2018-11-23T20:26:22.303Z,46.70
2018-11-23T20:29:25.300Z,48.73
2018-11-23T20:32:28.280Z,49.30
2018-11-23T20:35:31.308Z,48.93
2018-11-23T20:38:34.373Z,49.23
2018-11-23T20:41:38.355Z,49.23
2018-11-23T20:44:41.383Z,48.70
2018-11-23T20:47:44.560Z,46.23
2018-11-23T20:50:47.575Z,48.10
2018-11-23T20:53:50.649Z,46.17
2018-11-23T20:56:53.636Z,49.17
2018-11-23T20:59:56.627Z,48.47
2018-11-23T21:02:59.664Z,47.37
2018-11-23T21:06:02.708Z,47.17
2018-11-23T21:09:08.820Z,47.90
2018-11-23T21:12:11.864Z,49.93
2018-11-23T21:15:20.195Z,46.37
2018-11-23T21:18:23.274Z,48.33
2018-11-23T21:21:26.364Z,46.80
2018-11-23T21:24:29.462Z,47.47
2018-11-23T21:27:32.452Z,47.33
2018-11-23T21:30:35.460Z,46.03
2018-11-23T21:33:38.533Z,50.03
2018-11-23T21:36:41.524Z,52.37
2018-11-23T21:39:44.636Z,53.60
2018-11-23T21:42:47.687Z,50.23
2018-11-23T21:45:50.672Z,52.17
2018-11-23T21:48:53.689Z,51.53
2018-11-23T21:51:57.279Z,52.57
2018-11-23T21:54:59.767Z,52.80
2018-11-23T21:58:02.656Z,53.57
2018-11-23T22:01:05.657Z,52.87
2018-11-23T22:04:08.640Z,54.67
2018-11-23T22:07:11.639Z,53.93
2018-11-23T22:10:16.455Z,54.97
2018-11-23T22:13:19.483Z,55.43
2018-11-23T22:16:22.545Z,53.27
2018-11-23T22:19:25.579Z,53.77
2018-11-23T22:22:28.631Z,56.93
2018-11-23T22:25:31.653Z,50.93
2018-11-23T22:28:37.879Z,52.07
2018-11-23T22:31:41.060Z,53.47
2018-11-23T22:34:44.116Z,53.80
2018-11-23T22:37:47.142Z,51.60
2018-11-23T22:40:50.200Z,53.03
2018-11-23T22:43:53.230Z,52.63
2018-11-23T22:46:56.283Z,53.83
2018-11-23T22:49:59.315Z,55.03
2018-11-23T22:53:02.380Z,53.50
2018-11-23T22:56:05.596Z,56.47
2018-11-23T22:59:08.656Z,56.37
2018-11-23T23:02:11.811Z,54.50
2018-11-23T23:05:14.872Z,52.57
2018-11-23T23:08:17.964Z,52.40
2018-11-23T23:11:21.024Z,54.30
2018-11-23T23:14:24.047Z,55.63
2018-11-23T23:17:27.108Z,54.93
2018-11-23T23:20:30.236Z,66.67
2018-11-23T23:23:33.296Z,84.43
2018-11-23T23:26:36.364Z,86.37
2018-11-23T23:29:39.378Z,85.70
2018-11-23T23:32:43.020Z,76.43
2018-11-23T23:35:46.073Z,66.27
2018-11-23T23:38:49.271Z,54.63
2018-11-23T23:41:52.261Z,57.03
2018-11-23T23:44:55.384Z,55.37
2018-11-23T23:47:58.451Z,55.87
2018-11-23T23:51:01.465Z,61.43
2018-11-23T23:54:04.732Z,59.17
2018-11-23T23:57:07.860Z,56.83
